createdAt,value
2022-11-30T00:00:01.383Z,11.13
2022-11-30T00:04:04.011Z,10.43
2022-11-30T00:08:06.661Z,10.93
2022-11-30T00:12:10.913Z,11.10
2022-11-30T00:16:14.125Z,10.20
2022-11-30T00:20:17.378Z,8.73
2022-11-30T00:24:20.219Z,8.97
2022-11-30T00:28:24.258Z,9.07
2022-11-30T00:32:27.131Z,8.37
2022-11-30T00:36:29.815Z,8.47
2022-11-30T00:40:32.425Z,8.97
2022-11-30T00:44:36.644Z,8.07
2022-11-30T00:48:39.709Z,8.83
2022-11-30T00:52:42.345Z,7.97
2022-11-30T00:56:44.993Z,8.00
2022-11-30T01:00:49.375Z,7.90
2022-11-30T01:04:52.042Z,8.63
2022-11-30T01:08:54.950Z,8.13
2022-11-30T01:12:57.790Z,8.23
2022-11-30T01:17:01.799Z,9.53
2022-11-30T01:21:07.444Z,8.60
2022-11-30T01:25:10.340Z,8.13
2022-11-30T01:29:12.990Z,8.63
2022-11-30T01:33:17.233Z,8.40
2022-11-30T01:37:20.039Z,7.57
2022-11-30T01:41:24.715Z,8.43
2022-11-30T01:45:27.573Z,8.63
2022-11-30T01:49:33.095Z,8.30
2022-11-30T01:53:35.699Z,7.57
2022-11-30T01:57:40.469Z,8.37
2022-11-30T02:01:43.775Z,9.00
2022-11-30T02:05:48.055Z,8.63
2022-11-30T02:09:50.735Z,8.80
2022-11-30T02:14:18.753Z,8.90
2022-11-30T02:18:26.734Z,9.83
2022-11-30T02:22:44.573Z,10.83
2022-11-30T02:26:59.345Z,9.77
2022-11-30T02:31:05.945Z,10.00
2022-11-30T02:35:09.241Z,9.57
2022-11-30T02:39:12.916Z,9.50
2022-11-30T02:43:16.271Z,9.00
2022-11-30T02:47:24.401Z,9.07
2022-11-30T02:51:28.199Z,9.50
2022-11-30T02:55:31.979Z,9.63
2022-11-30T02:59:34.710Z,10.37
2022-11-30T03:03:38.746Z,9.33
2022-11-30T03:07:41.393Z,10.43
2022-11-30T03:11:44.062Z,11.07
2022-11-30T03:15:47.736Z,11.70
2022-11-30T03:19:51.749Z,12.50
2022-11-30T03:23:54.450Z,11.03
2022-11-30T03:27:57.221Z,11.90
2022-11-30T03:31:59.855Z,10.77
2022-11-30T03:36:05.772Z,12.07
2022-11-30T03:40:10.119Z,10.73
2022-11-30T03:44:12.814Z,11.93
2022-11-30T03:48:15.480Z,11.03
2022-11-30T03:52:19.512Z,11.00
2022-11-30T03:56:22.129Z,11.97
2022-11-30T04:00:25.003Z,11.83
2022-11-30T04:04:27.667Z,11.67
2022-11-30T04:08:32.044Z,11.50
2022-11-30T04:12:34.694Z,11.40
2022-11-30T04:16:37.455Z,11.60
2022-11-30T04:20:40.770Z,11.50
2022-11-30T04:24:44.979Z,11.67
2022-11-30T04:28:48.093Z,11.80
2022-11-30T04:32:50.750Z,11.30
2022-11-30T04:36:58.757Z,11.77
2022-11-30T04:41:08.957Z,11.80
2022-11-30T04:45:12.796Z,11.70
2022-11-30T04:49:15.463Z,12.57
2022-11-30T04:53:18.613Z,11.70
2022-11-30T04:57:22.881Z,11.67
2022-11-30T05:01:25.627Z,11.77
2022-11-30T05:05:28.494Z,11.27
2022-11-30T05:09:31.419Z,11.70
2022-11-30T05:13:35.399Z,12.50
2022-11-30T05:17:38.139Z,10.50
2022-11-30T05:21:45.452Z,11.90
2022-11-30T05:25:49.239Z,12.50
2022-11-30T05:29:53.549Z,13.87
2022-11-30T05:33:56.269Z,11.73
2022-11-30T05:37:58.939Z,13.00
2022-11-30T05:42:01.642Z,11.77
2022-11-30T05:46:07.145Z,13.10
2022-11-30T05:50:10.448Z,12.33
2022-11-30T05:54:13.128Z,13.47
2022-11-30T05:58:15.813Z,12.30
2022-11-30T06:02:25.167Z,12.30
2022-11-30T06:06:30.505Z,14.73
2022-11-30T06:10:33.163Z,13.00
2022-11-30T06:14:35.919Z,13.83
2022-11-30T06:18:39.995Z,13.73
2022-11-30T06:22:46.084Z,15.07
2022-11-30T06:26:48.798Z,15.80
2022-11-30T06:30:51.591Z,15.97
2022-11-30T06:34:55.617Z,17.30
2022-11-30T06:38:58.324Z,24.03
2022-11-30T06:43:00.954Z,16.00
2022-11-30T06:47:03.568Z,16.53
2022-11-30T06:51:08.926Z,15.20
2022-11-30T06:55:11.938Z,15.53
2022-11-30T06:59:14.576Z,16.87
2022-11-30T07:03:17.253Z,17.43
2022-11-30T07:07:21.364Z,18.00
2022-11-30T07:11:24.284Z,16.97
2022-11-30T07:15:27.017Z,17.50
2022-11-30T07:19:29.999Z,18.20
2022-11-30T07:23:56.295Z,18.63
2022-11-30T07:27:59.709Z,17.80
2022-11-30T07:32:02.699Z,18.00
2022-11-30T07:36:05.558Z,18.33
2022-11-30T07:40:11.758Z,20.63
2022-11-30T07:44:14.544Z,19.10
2022-11-30T07:48:17.238Z,18.37
2022-11-30T07:52:20.193Z,17.80
2022-11-30T07:56:24.625Z,18.77
2022-11-30T08:00:27.319Z,18.07
2022-11-30T08:04:30.050Z,19.37
2022-11-30T08:08:33.735Z,18.63
2022-11-30T08:12:38.146Z,20.13
2022-11-30T08:16:40.854Z,19.60
2022-11-30T08:20:49.624Z,20.43
2022-11-30T08:24:53.088Z,17.80
2022-11-30T08:28:57.864Z,19.70
2022-11-30T08:33:00.586Z,19.23
2022-11-30T08:37:03.357Z,20.13
2022-11-30T08:41:07.260Z,21.00
2022-11-30T08:45:12.289Z,20.10
2022-11-30T08:49:22.684Z,20.53
2022-11-30T08:53:26.652Z,20.80
2022-11-30T08:57:29.494Z,21.13
2022-11-30T09:01:33.532Z,20.17
2022-11-30T09:05:36.238Z,20.73
2022-11-30T09:09:39.136Z,20.40
2022-11-30T09:13:43.157Z,20.80
2022-11-30T09:17:47.175Z,20.33
2022-11-30T09:21:52.273Z,20.03
2022-11-30T09:25:56.795Z,20.77
2022-11-30T09:29:59.494Z,20.60
2022-11-30T09:34:03.513Z,20.57
2022-11-30T09:38:06.432Z,20.40
2022-11-30T09:42:27.541Z,21.93
2022-11-30T09:46:35.250Z,23.10
2022-11-30T09:50:43.656Z,22.13
2022-11-30T09:54:48.060Z,22.03
2022-11-30T09:58:55.377Z,21.33
2022-11-30T10:03:00.493Z,22.90
2022-11-30T10:07:13.134Z,20.90
2022-11-30T10:11:29.157Z,20.77
2022-11-30T10:15:37.312Z,21.37
2022-11-30T10:19:53.589Z,21.13
2022-11-30T10:24:09.560Z,22.67
2022-11-30T10:28:45.716Z,21.17
2022-11-30T10:32:42.716Z,20.90
2022-11-30T10:36:47.476Z,19.07
2022-11-30T10:40:55.250Z,18.77
2022-11-30T10:45:01.053Z,20.33
2022-11-30T10:49:06.604Z,19.93
2022-11-30T10:53:11.805Z,19.90
2022-11-30T10:57:15.865Z,19.17
2022-11-30T11:01:33.152Z,35.20
2022-11-30T11:05:35.939Z,53.07
2022-11-30T11:09:40.727Z,20.50
2022-11-30T11:13:45.189Z,18.43
2022-11-30T11:17:48.098Z,17.47
2022-11-30T11:21:51.406Z,17.83
2022-11-30T11:25:54.244Z,16.93
2022-11-30T11:30:05.424Z,19.13
2022-11-30T11:34:25.128Z,18.00
2022-11-30T11:38:29.821Z,20.63
2022-11-30T11:42:34.597Z,18.77
2022-11-30T11:46:39.995Z,20.67
2022-11-30T11:55:07.341Z,19.57
2022-11-30T11:59:15.524Z,19.77
2022-11-30T12:03:27.869Z,19.53
2022-11-30T12:07:35.251Z,20.83
2022-11-30T12:11:41.725Z,20.70
2022-11-30T12:15:54.775Z,20.77
2022-11-30T12:20:04.335Z,20.47
2022-11-30T12:24:49.232Z,21.80
2022-11-30T12:29:15.210Z,21.00
2022-11-30T12:33:27.051Z,20.83
2022-11-30T12:37:43.033Z,21.20
2022-11-30T12:41:52.494Z,21.27
2022-11-30T12:45:59.331Z,22.10
2022-11-30T12:50:17.469Z,21.17
2022-11-30T12:54:27.330Z,22.27
2022-11-30T12:58:37.345Z,23.73
2022-11-30T13:02:52.289Z,22.60
2022-11-30T13:06:57.540Z,22.50
2022-11-30T13:11:04.504Z,21.40
2022-11-30T13:15:15.535Z,20.53
2022-11-30T13:19:36.131Z,21.63
2022-11-30T13:23:41.825Z,20.87
2022-11-30T13:27:53.466Z,21.47
2022-11-30T13:32:05.424Z,21.60
2022-11-30T13:36:23.924Z,22.03
2022-11-30T13:40:26.921Z,21.17
2022-11-30T13:44:33.731Z,19.97
2022-11-30T13:48:39.566Z,20.97
2022-11-30T13:53:22.691Z,20.57
2022-11-30T13:58:02.899Z,20.20
2022-11-30T14:07:39.039Z,18.27
2022-11-30T14:11:44.080Z,20.10
2022-11-30T14:15:56.518Z,19.40
2022-11-30T14:20:01.199Z,21.27
2022-11-30T14:24:09.016Z,21.37
2022-11-30T14:28:16.081Z,19.63
2022-11-30T14:32:25.025Z,19.57
2022-11-30T14:36:35.090Z,19.53
2022-11-30T14:40:39.554Z,19.57
2022-11-30T14:44:42.218Z,18.17
2022-11-30T14:48:45.360Z,18.60
2022-11-30T14:52:56.483Z,19.40
2022-11-30T14:57:06.369Z,18.17
2022-11-30T15:01:18.859Z,16.93
2022-11-30T15:05:23.922Z,17.83
2022-11-30T15:09:29.163Z,16.73
2022-11-30T15:13:33.422Z,21.40
2022-11-30T15:17:47.104Z,17.77
2022-11-30T15:21:50.395Z,18.10
2022-11-30T15:25:56.408Z,18.67
2022-11-30T15:30:02.177Z,18.90
2022-11-30T15:34:05.833Z,18.70
2022-11-30T15:38:09.636Z,19.27
2022-11-30T15:42:19.892Z,18.73
2022-11-30T15:46:33.675Z,19.37
2022-11-30T15:50:39.525Z,19.00
2022-11-30T15:54:49.804Z,18.43
2022-11-30T15:59:02.018Z,15.77
2022-11-30T16:03:13.861Z,17.30
2022-11-30T16:07:18.081Z,16.53
2022-11-30T16:11:20.932Z,17.00
2022-11-30T16:15:25.346Z,16.77
2022-11-30T16:19:29.327Z,17.70
2022-11-30T16:23:34.934Z,17.13
2022-11-30T16:27:37.809Z,18.27
2022-11-30T16:31:40.564Z,17.90
2022-11-30T16:35:49.139Z,17.83
2022-11-30T16:39:51.844Z,17.80
2022-11-30T16:43:55.858Z,19.77
2022-11-30T16:47:58.544Z,20.67
2022-11-30T16:52:03.779Z,20.50
2022-11-30T16:56:06.944Z,21.37
2022-11-30T17:00:11.986Z,21.13
2022-11-30T17:04:18.603Z,20.07
2022-11-30T17:08:22.665Z,21.17
2022-11-30T17:12:25.322Z,20.83
2022-11-30T17:16:28.529Z,19.93
2022-11-30T17:20:31.160Z,20.17
2022-11-30T17:24:35.487Z,20.67
2022-11-30T17:28:38.504Z,19.47
2022-11-30T17:32:41.236Z,18.53
2022-11-30T17:36:44.302Z,19.17
2022-11-30T17:40:48.469Z,19.23
2022-11-30T17:44:51.225Z,19.53
2022-11-30T17:48:54.231Z,18.60
2022-11-30T17:52:56.963Z,20.53
2022-11-30T17:57:01.060Z,19.57
2022-11-30T18:01:03.832Z,19.17
2022-11-30T18:05:07.389Z,19.53
2022-11-30T18:09:10.149Z,18.80
2022-11-30T18:13:14.278Z,18.93
2022-11-30T18:17:17.000Z,18.47
2022-11-30T18:21:21.701Z,18.60
2022-11-30T18:25:24.344Z,18.63
2022-11-30T18:29:28.640Z,20.00
2022-11-30T18:33:31.331Z,20.97
2022-11-30T18:37:34.461Z,19.13
2022-11-30T18:41:37.202Z,19.07
2022-11-30T18:45:41.470Z,19.00
2022-11-30T18:49:44.151Z,18.47
2022-11-30T18:53:47.439Z,18.73
2022-11-30T18:57:50.329Z,19.93
2022-11-30T19:01:55.351Z,18.40
2022-11-30T19:05:58.143Z,18.73
2022-11-30T19:10:03.739Z,20.57
2022-11-30T19:14:06.960Z,20.97
2022-11-30T19:18:11.986Z,20.37
2022-11-30T19:22:14.656Z,20.63
2022-11-30T19:26:17.310Z,19.40
2022-11-30T19:30:20.083Z,18.37
2022-11-30T19:34:24.261Z,21.77
2022-11-30T19:38:26.909Z,19.53
2022-11-30T19:42:31.270Z,19.67
2022-11-30T19:46:34.710Z,30.30
2022-11-30T19:50:39.165Z,28.50
2022-11-30T19:54:41.823Z,20.97
2022-11-30T19:58:45.374Z,19.80
2022-11-30T20:02:49.581Z,19.93
2022-11-30T20:06:54.020Z,20.10
2022-11-30T20:10:56.898Z,20.57
2022-11-30T20:14:59.574Z,18.90
2022-11-30T20:19:03.280Z,19.20
2022-11-30T20:23:07.630Z,18.97
2022-11-30T20:27:10.300Z,19.37
2022-11-30T20:31:14.796Z,19.50
2022-11-30T20:35:17.547Z,21.10
2022-11-30T20:39:21.598Z,21.20
2022-11-30T20:43:24.319Z,18.77
2022-11-30T20:47:29.834Z,19.27
2022-11-30T20:51:35.584Z,19.03
2022-11-30T20:55:39.699Z,20.87
2022-11-30T20:59:42.477Z,19.57
2022-11-30T21:03:45.532Z,19.83
2022-11-30T21:07:48.674Z,19.10
2022-11-30T21:11:53.037Z,18.67
2022-11-30T21:15:55.725Z,18.17
2022-11-30T21:19:58.416Z,17.53
2022-11-30T21:24:02.756Z,17.57
2022-11-30T21:28:07.096Z,19.80
2022-11-30T21:32:09.767Z,19.87
2022-11-30T21:36:14.759Z,19.83
2022-11-30T21:40:17.482Z,19.73
2022-11-30T21:44:22.134Z,18.63
2022-11-30T21:48:25.128Z,18.80
2022-11-30T21:52:27.900Z,19.17
2022-11-30T21:56:32.369Z,18.37
2022-11-30T22:00:36.384Z,18.03
2022-11-30T22:04:39.260Z,18.00
2022-11-30T22:08:42.364Z,18.60
2022-11-30T22:12:45.526Z,18.60
2022-11-30T22:16:49.539Z,17.57
2022-11-30T22:20:52.175Z,19.37
2022-11-30T22:24:55.688Z,18.37
2022-11-30T22:28:59.872Z,17.37
2022-11-30T22:33:03.899Z,17.20
2022-11-30T22:37:06.529Z,16.53
2022-11-30T22:41:11.295Z,16.83
2022-11-30T22:45:14.195Z,16.23
2022-11-30T22:49:21.693Z,15.93
2022-11-30T22:53:25.020Z,15.40
2022-11-30T22:57:27.962Z,15.10
2022-11-30T23:01:31.934Z,15.17
2022-11-30T23:05:36.795Z,14.97
2022-11-30T23:09:39.413Z,14.50
2022-11-30T23:13:43.535Z,15.87
2022-11-30T23:17:46.212Z,15.40
2022-11-30T23:21:50.815Z,13.87
2022-11-30T23:25:53.770Z,13.57
2022-11-30T23:29:56.470Z,13.53
2022-11-30T23:33:59.145Z,13.73
2022-11-30T23:38:03.727Z,13.40
2022-11-30T23:42:06.546Z,12.70
2022-11-30T23:46:10.745Z,12.27
2022-11-30T23:50:13.453Z,12.90
2022-11-30T23:54:17.528Z,14.10
2022-11-30T23:58:21.016Z,13.33
